.
WxDataArchive / Data Records for 2007-04-18
2007-04-17 April 2007 2007-04-19

Data Records for Wednesday, 18 April 2007

Time	Temp	Chill	HIndex	Humid	Dewpt	 Wind 	HiWind	WindDir	Rain 	Barom 
-----	----	-----	------	-----	-----	------	------	-------	-----	----- 
00:00	49.9	49.9	49.9	56	34.8	0	2	90	0.00	29.828 
00:05	49.8	49.8	49.8	57	35.2	0	2	90	0.00	29.825 
00:10	49.5	49.5	49.5	58	35.3	0	2	90	0.00	29.826 
00:15	49.2	49.2	49.2	59	35.5	0	1	90	0.00	29.826 
00:20	49.1	49.1	49.1	60	35.8	0	2	90	0.00	29.827 
00:25	48.9	48.9	48.9	61	36.0	1	3	90	0.00	29.827 
00:30	48.8	48.8	48.8	61	36.0	1	4	112	0.00	29.826 
00:35	48.8	48.8	48.8	62	36.4	1	3	112	0.00	29.828 
00:40	48.8	48.8	48.8	62	36.4	2	4	112	0.00	29.827 
00:45	48.6	48.6	48.6	63	36.6	2	4	112	0.00	29.827 
00:50	48.6	48.6	48.6	63	36.6	2	5	112	0.00	29.828 
00:55	48.5	48.5	48.5	64	36.9	3	6	112	0.00	29.826 
01:00	48.3	48.3	48.3	65	37.1	2	8	112	0.00	29.828 
01:05	48.2	46.8	48.2	65	37.0	4	9	112	0.00	29.827 
01:10	48.0	45.9	48.0	65	36.8	5	13	112	0.00	29.826 
01:15	48.0	45.9	48.0	64	36.4	5	9	112	0.00	29.825 
01:20	47.7	46.2	47.7	64	36.1	4	7	112	0.00	29.826 
01:25	47.6	44.8	47.6	64	36.0	6	10	112	0.00	29.826 
01:30	47.4	45.2	47.4	64	35.8	5	10	112	0.00	29.827 
01:35	47.1	45.5	47.1	65	35.9	4	11	112	0.00	29.825 
01:40	47.0	47.0	47.0	65	35.9	2	7	112	0.00	29.821 
01:45	46.8	46.8	46.8	66	36.0	2	5	112	0.00	29.818 
01:50	46.7	46.7	46.7	67	36.3	2	5	112	0.00	29.817 
01:55	46.4	46.4	46.4	67	36.0	2	7	112	0.00	29.814 
02:00	46.2	46.2	46.2	67	35.9	2	4	112	0.00	29.815 
02:05	46.1	46.1	46.1	66	35.4	1	4	112	0.00	29.813 
02:10	46.0	46.0	46.0	66	35.3	2	3	112	0.00	29.813 
02:15	45.8	45.8	45.8	67	35.5	1	3	112	0.00	29.812 
02:20	45.7	45.7	45.7	68	35.8	1	4	112	0.00	29.807 
02:25	45.4	45.4	45.4	68	35.5	1	5	112	0.00	29.807 
02:30	45.2	45.2	45.2	68	35.3	1	5	90	0.00	29.811 
02:35	45.1	45.1	45.1	67	34.8	2	10	112	0.00	29.812 
02:40	45.1	45.1	45.1	66	34.4	3	7	112	0.00	29.812 
02:45	45.1	45.1	45.1	65	34.0	3	7	112	0.00	29.810 
02:50	45.1	45.1	45.1	65	34.0	2	6	112	0.00	29.810 
02:55	44.9	44.9	44.9	65	33.9	2	5	112	0.00	29.807 
03:00	44.8	44.8	44.8	66	34.1	1	5	90	0.00	29.806 
03:05	44.6	44.6	44.6	67	34.3	0	2	90	0.00	29.808 
03:10	44.5	44.5	44.5	68	34.6	1	5	90	0.00	29.812 
03:15	44.3	44.3	44.3	68	34.4	2	4	90	0.00	29.811 
03:20	44.2	44.2	44.2	69	34.7	1	4	90	0.00	29.806 
03:25	44.1	44.1	44.1	70	35.0	1	2	90	0.00	29.807 
03:30	43.9	43.9	43.9	70	34.8	0	2	90	0.00	29.809 
03:35	43.8	43.8	43.8	71	35.0	0	1	90	0.00	29.811 
03:40	43.6	43.6	43.6	71	34.8	0	2	90	0.00	29.807 
03:45	43.5	43.5	43.5	71	34.7	0	2	90	0.00	29.803 
03:50	43.3	43.3	43.3	72	34.9	0	2	68	0.00	29.803 
03:55	43.3	43.3	43.3	72	34.9	0	2	68	0.00	29.803 
04:00	43.2	43.2	43.2	72	34.8	0	2	90	0.00	29.803 
04:05	43.2	43.2	43.2	73	35.1	0	2	90	0.00	29.805 
04:10	43.2	43.2	43.2	73	35.1	0	2	90	0.00	29.804 
04:15	43.1	43.1	43.1	73	35.0	0	2	90	0.00	29.803 
04:20	43.1	43.1	43.1	73	35.0	1	3	112	0.00	29.803 
04:25	43.1	43.1	43.1	72	34.7	1	4	112	0.00	29.803 
04:30	43.1	43.1	43.1	72	34.7	1	4	90	0.00	29.802 
04:35	42.9	42.9	42.9	71	34.2	1	3	112	0.00	29.802 
04:40	42.9	42.9	42.9	71	34.2	0	2	135	0.00	29.802 
04:45	42.9	42.9	42.9	71	34.2	1	5	90	0.00	29.802 
04:50	42.8	42.8	42.8	71	34.1	1	3	112	0.00	29.803 
04:55	42.8	42.8	42.8	71	34.1	1	3	90	0.00	29.802 
05:00	42.8	42.8	42.8	71	34.1	1	3	90	0.00	29.801 
05:05	42.6	42.6	42.6	71	33.9	1	2	45	0.00	29.799 
05:10	42.6	42.6	42.6	71	33.9	1	3	90	0.00	29.796 
05:15	42.6	42.6	42.6	71	33.9	1	4	112	0.00	29.795 
05:20	42.5	42.5	42.5	70	33.4	1	3	68	0.00	29.790 
05:25	42.5	42.5	42.5	70	33.4	1	4	90	0.00	29.790 
05:30	42.3	42.3	42.3	70	33.2	1	9	112	0.00	29.796 
05:35	42.3	42.3	42.3	70	33.2	0	3	90	0.00	29.799 
05:40	42.2	42.2	42.2	70	33.1	0	2	112	0.00	29.803 
05:45	42.1	42.1	42.1	71	33.4	1	3	112	0.00	29.803 
05:50	41.9	41.9	41.9	72	33.5	1	3	90	0.00	29.803 
05:55	41.8	41.8	41.8	72	33.4	1	3	90	0.00	29.802 
06:00	41.8	41.8	41.8	72	33.4	1	4	90	0.00	29.802 
06:05	41.8	41.8	41.8	72	33.4	2	4	90	0.00	29.804 
06:10	41.9	41.9	41.9	72	33.5	1	6	90	0.00	29.806 
06:15	41.9	41.9	41.9	72	33.5	1	3	45	0.00	29.808 
06:20	41.9	41.9	41.9	72	33.5	1	2	90	0.00	29.809 
06:25	41.9	41.9	41.9	72	33.5	1	2	90	0.00	29.810 
06:30	42.1	42.1	42.1	72	33.7	1	6	90	0.00	29.815 
06:35	42.2	42.2	42.2	71	33.5	1	4	112	0.00	29.817 
06:40	42.2	42.2	42.2	71	33.5	2	4	112	0.00	29.820 
06:45	42.3	42.3	42.3	71	33.6	1	6	90	0.00	29.820 
06:50	42.5	42.5	42.5	71	33.8	1	4	45	0.00	29.821 
06:55	42.5	42.5	42.5	71	33.8	1	4	68	0.00	29.822 
07:00	42.6	42.6	42.6	71	33.9	2	6	112	0.00	29.822 
07:05	42.8	42.8	42.8	71	34.1	2	4	68	0.00	29.825 
07:10	42.8	42.8	42.8	71	34.1	2	6	112	0.00	29.824 
07:15	42.9	42.9	42.9	71	34.2	3	7	112	0.00	29.823 
07:20	42.9	42.9	42.9	71	34.2	2	5	112	0.00	29.825 
07:25	42.9	42.9	42.9	71	34.2	2	5	112	0.00	29.828 
07:30	43.1	43.1	43.1	71	34.3	2	5	112	0.00	29.830 
07:35	43.1	40.9	43.1	70	34.0	4	10	112	0.00	29.827 
07:40	43.1	43.1	43.1	71	34.3	3	9	90	0.00	29.827 
07:45	43.1	43.1	43.1	71	34.3	3	13	135	0.00	29.828 
07:50	43.1	43.1	43.1	72	34.7	2	6	68	0.00	29.828 
07:55	43.2	43.2	43.2	71	34.4	2	8	135	0.00	29.831 
08:00	43.2	43.2	43.2	72	34.8	2	8	68	0.00	29.831 
08:05	43.3	43.3	43.3	72	34.9	2	6	112	0.00	29.838 
08:10	43.5	43.5	43.5	72	35.1	2	9	112	0.00	29.839 
08:15	43.6	43.6	43.6	72	35.2	2	11	45	0.00	29.834 
08:20	44.1	44.1	44.1	71	35.3	2	6	112	0.00	29.837 
08:25	44.2	44.2	44.2	70	35.0	2	6	90	0.00	29.839 
08:30	44.3	44.3	44.3	72	35.9	3	10	112	0.00	29.839 
08:35	44.6	44.6	44.6	70	35.4	3	9	112	0.00	29.840 
08:40	44.8	44.8	44.8	70	35.6	3	7	112	0.00	29.840 
08:45	45.1	45.1	45.1	71	36.3	3	9	90	0.00	29.840 
08:50	45.5	45.5	45.5	70	36.3	2	6	112	0.00	29.840 
08:55	46.0	46.0	46.0	70	36.8	2	5	90	0.00	29.839 
09:00	46.1	46.1	46.1	68	36.1	3	7	90	0.00	29.839 
09:05	46.2	46.2	46.2	70	37.0	2	7	112	0.00	29.841 
09:10	46.5	46.5	46.5	69	36.9	3	9	112	0.00	29.843 
09:15	47.0	47.0	47.0	68	37.0	2	6	112	0.00	29.843 
09:20	47.1	45.5	47.1	67	36.7	4	10	112	0.00	29.841 
09:25	47.4	45.9	47.4	68	37.4	4	12	112	0.00	29.840 
09:30	47.7	46.2	47.7	67	37.3	4	9	112	0.00	29.841 
09:35	47.7	45.5	47.7	65	36.5	5	14	112	0.00	29.841 
09:40	47.7	46.2	47.7	65	36.5	4	12	112	0.00	29.842 
09:45	47.6	45.4	47.6	65	36.4	5	12	112	0.00	29.842 
09:50	47.6	46.1	47.6	66	36.8	4	10	112	0.00	29.841 
09:55	47.9	46.4	47.9	67	37.5	4	13	112	0.00	29.840 
10:00	48.2	48.2	48.2	65	37.0	3	11	112	0.00	29.840 
10:05	48.0	45.3	48.0	65	36.8	6	13	112	0.00	29.842 
10:10	48.3	46.2	48.3	65	37.1	5	14	90	0.00	29.843 
10:15	48.5	45.4	48.5	63	36.5	7	16	112	0.00	29.840 
10:20	48.3	46.2	48.3	64	36.7	5	13	112	0.00	29.841 
10:25	48.3	46.2	48.3	64	36.7	5	12	112	0.00	29.839 
10:30	48.6	47.3	48.6	65	37.4	4	11	112	0.00	29.838 
10:35	48.5	47.1	48.5	65	37.3	4	10	112	0.00	29.837 
10:40	48.5	48.5	48.5	65	37.3	3	7	90	0.00	29.832 
10:45	48.3	46.2	48.3	65	37.1	5	11	112	0.00	29.835 
10:50	48.3	48.3	48.3	66	37.5	3	9	90	0.00	29.838 
10:55	48.5	48.5	48.5	65	37.3	3	8	90	0.00	29.836 
11:00	48.5	48.5	48.5	65	37.3	2	7	90	0.00	29.835 
11:05	48.5	47.1	48.5	65	37.3	4	11	112	0.00	29.838 
11:10	48.2	45.5	48.2	64	36.6	6	12	112	0.00	29.838 
11:15	48.0	45.9	48.0	65	36.8	5	12	112	0.00	29.837 
11:20	48.2	46.1	48.2	65	37.0	5	9	90	0.00	29.837 
11:25	48.2	46.1	48.2	63	36.2	5	12	112	0.00	29.839 
11:30	48.3	46.2	48.3	63	36.3	5	12	112	0.00	29.836 
11:35	48.8	48.8	48.8	64	37.2	2	11	112	0.00	29.836 
11:40	48.9	47.6	48.9	65	37.7	4	8	112	0.00	29.835 
11:45	48.9	46.9	48.9	65	37.7	5	11	112	0.00	29.834 
11:50	49.2	47.3	49.2	63	37.1	5	10	112	0.00	29.830 
11:55	49.2	49.2	49.2	63	37.1	2	8	112	0.00	29.830 
12:00	49.4	48.2	49.4	63	37.3	4	7	112	0.00	29.830 
12:05	49.1	46.6	49.1	63	37.1	6	12	112	0.00	29.831 
12:10	48.9	47.6	48.9	63	36.9	4	10	112	0.00	29.828 
12:15	49.2	49.2	49.2	64	37.5	3	9	90	0.00	29.827 
12:20	49.6	49.6	49.6	63	37.5	3	7	68	0.00	29.825 
12:25	49.9	49.9	49.9	62	37.4	2	7	45	0.00	29.825 
12:30	49.8	48.6	49.8	62	37.3	4	14	112	0.00	29.825 
12:35	49.8	49.8	49.8	63	37.7	3	6	112	0.00	29.825 
12:40	49.6	47.7	49.6	61	36.7	5	11	112	0.00	29.825 
12:45	49.5	49.5	49.5	62	37.0	3	6	135	0.00	29.825 
12:50	49.6	49.6	49.6	61	36.7	3	6	112	0.00	29.825 
12:55	49.5	49.5	49.5	62	37.0	3	9	112	0.00	29.826 
13:00	49.5	49.5	49.5	62	37.0	2	6	45	0.00	29.826 
13:05	49.4	49.4	49.4	62	36.9	3	11	68	0.00	29.827 
13:10	49.2	47.9	49.2	62	36.7	4	12	90	0.00	29.830 
13:15	49.2	49.2	49.2	62	36.7	3	10	112	0.00	29.831 
13:20	49.1	49.1	49.1	64	37.5	3	9	112	0.00	29.833 
13:25	48.9	47.6	48.9	63	36.9	4	10	112	0.00	29.835 
13:30	48.6	46.6	48.6	64	37.0	5	11	112	0.00	29.837 
13:35	48.5	48.5	48.5	64	36.9	3	8	112	0.00	29.841 
13:40	48.3	46.9	48.3	64	36.7	4	11	112	0.00	29.842 
13:45	48.0	45.9	48.0	64	36.4	5	10	112	0.00	29.843 
13:50	48.0	48.0	48.0	64	36.4	3	9	112	0.00	29.843 
13:55	48.0	48.0	48.0	65	36.8	2	7	90	0.00	29.843 
14:00	48.0	48.0	48.0	65	36.8	2	8	45	0.00	29.844 
14:05	48.0	48.0	48.0	66	37.2	3	6	112	0.00	29.845 
14:10	48.2	48.2	48.2	65	37.0	2	7	90	0.00	29.844 
14:15	48.2	48.2	48.2	65	37.0	3	7	90	0.00	29.843 
14:20	48.3	48.3	48.3	66	37.5	3	11	90	0.00	29.841 
14:25	48.3	48.3	48.3	65	37.1	3	9	112	0.00	29.838 
14:30	48.3	48.3	48.3	66	37.5	3	9	112	0.00	29.835 
14:35	48.2	48.2	48.2	65	37.0	3	9	22	0.00	29.832 
14:40	48.2	48.2	48.2	66	37.4	3	9	22	0.00	29.831 
14:45	48.3	48.3	48.3	65	37.1	2	7	112	0.00	29.831 
14:50	48.5	48.5	48.5	66	37.7	2	7	112	0.00	29.829 
14:55	48.5	48.5	48.5	65	37.3	3	9	112	0.00	29.830 
15:00	48.2	48.2	48.2	65	37.0	3	6	90	0.00	29.832 
15:05	48.0	48.0	48.0	67	37.6	2	7	112	0.00	29.834 
15:10	47.9	47.9	47.9	65	36.7	2	7	112	0.00	29.838 
15:15	47.9	47.9	47.9	66	37.1	2	5	90	0.00	29.837 
15:20	47.7	47.7	47.7	67	37.3	2	5	112	0.00	29.836 
15:25	47.7	47.7	47.7	67	37.3	2	5	90	0.00	29.836 
15:30	47.7	47.7	47.7	67	37.3	1	4	45	0.00	29.837 
15:35	47.6	47.6	47.6	66	36.8	2	6	112	0.00	29.835 
15:40	47.9	47.9	47.9	68	37.9	1	6	68	0.00	29.834 
15:45	48.0	48.0	48.0	66	37.2	2	6	90	0.00	29.833 
15:50	48.0	48.0	48.0	66	37.2	1	4	135	0.00	29.836 
15:55	48.0	48.0	48.0	66	37.2	1	3	112	0.00	29.836 
16:00	48.2	48.2	48.2	66	37.4	1	3	90	0.00	29.838 
16:05	48.2	48.2	48.2	65	37.0	2	7	112	0.00	29.838 
16:10	48.2	48.2	48.2	65	37.0	1	4	112	0.00	29.837 
16:15	48.3	48.3	48.3	65	37.1	2	6	112	0.00	29.839 
16:20	48.2	48.2	48.2	63	36.2	2	4	45	0.00	29.839 
16:25	48.3	48.3	48.3	64	36.7	1	5	112	0.00	29.839 
16:30	48.3	48.3	48.3	65	37.1	1	3	68	0.00	29.838 
16:35	48.5	48.5	48.5	64	36.9	2	6	112	0.00	29.839 
16:40	48.5	48.5	48.5	64	36.9	0	3	90	0.00	29.842 
16:45	48.6	48.6	48.6	64	37.0	1	4	112	0.00	29.843 
16:50	48.5	48.5	48.5	64	36.9	1	4	45	0.00	29.844 
16:55	48.3	48.3	48.3	65	37.1	0	2	45	0.00	29.845 
17:00	48.2	48.2	48.2	65	37.0	0	2	22	0.00	29.846 
17:05	48.0	48.0	48.0	65	36.8	0	2	0	0.00	29.847 
17:10	48.0	48.0	48.0	65	36.8	1	3	90	0.00	29.847 
17:15	48.0	48.0	48.0	65	36.8	0	2	90	0.00	29.847 
17:20	48.0	48.0	48.0	66	37.2	0	2	90	0.00	29.848 
17:25	48.0	48.0	48.0	66	37.2	0	1	68	0.00	29.848 
17:30	48.0	48.0	48.0	65	36.8	1	3	135	0.00	29.848 
17:35	48.0	48.0	48.0	65	36.8	1	5	112	0.00	29.848 
17:40	48.2	48.2	48.2	66	37.4	1	3	135	0.00	29.849 
17:45	48.2	48.2	48.2	66	37.4	1	3	45	0.00	29.849 
17:50	48.2	48.2	48.2	66	37.4	1	3	0	0.00	29.851 
17:55	48.2	48.2	48.2	66	37.4	1	4	22	0.00	29.851 
18:00	48.2	48.2	48.2	66	37.4	1	5	22	0.00	29.851 
18:05	48.2	48.2	48.2	66	37.4	1	3	90	0.00	29.852 
18:10	48.3	48.3	48.3	66	37.5	1	4	90	0.00	29.851 
18:15	48.2	48.2	48.2	66	37.4	1	6	45	0.00	29.852 
18:20	48.2	48.2	48.2	66	37.4	3	7	112	0.00	29.854 
18:25	48.2	46.8	48.2	67	37.8	4	10	90	0.00	29.855 
18:30	48.2	48.2	48.2	67	37.8	3	9	112	0.00	29.858 
18:35	48.0	46.6	48.0	67	37.6	4	11	90	0.00	29.859 
18:40	47.9	47.9	47.9	68	37.9	3	11	112	0.00	29.862 
18:45	47.6	47.6	47.6	69	37.9	3	9	112	0.00	29.861 
18:50	47.6	46.1	47.6	69	37.9	4	10	112	0.00	29.862 
18:55	47.4	47.4	47.4	69	37.7	3	9	112	0.00	29.863 
19:00	47.4	47.4	47.4	70	38.1	3	9	90	0.00	29.864 
19:05	47.3	47.3	47.3	70	38.0	2	5	112	0.00	29.867 
19:10	47.1	47.1	47.1	70	37.8	2	9	112	0.00	29.870 
19:15	47.1	47.1	47.1	70	37.8	1	3	112	0.00	29.875 
19:20	47.0	47.0	47.0	71	38.1	2	8	90	0.00	29.876 
19:25	47.0	47.0	47.0	71	38.1	2	6	90	0.00	29.876 
19:30	46.8	46.8	46.8	71	37.9	2	4	68	0.00	29.875 
19:35	46.8	46.8	46.8	71	37.9	2	5	112	0.00	29.877 
19:40	46.7	46.7	46.7	72	38.2	2	5	112	0.00	29.878 
19:45	46.7	46.7	46.7	72	38.2	2	4	90	0.00	29.879 
19:50	46.5	46.5	46.5	73	38.3	2	4	112	0.00	29.880 
19:55	46.5	46.5	46.5	73	38.3	1	6	112	0.00	29.881 
20:00	46.4	46.4	46.4	73	38.2	1	5	90	0.00	29.883 
20:05	46.4	46.4	46.4	74	38.6	1	5	68	0.00	29.881 
20:10	46.2	46.2	46.2	74	38.4	1	3	45	0.00	29.880 
20:15	46.2	46.2	46.2	74	38.4	1	5	112	0.00	29.881 
20:20	46.1	46.1	46.1	74	38.3	1	4	45	0.00	29.880 
20:25	46.0	46.0	46.0	74	38.2	2	9	112	0.00	29.881 
20:30	46.0	46.0	46.0	75	38.5	1	5	90	0.00	29.880 
20:35	45.8	45.8	45.8	75	38.3	2	6	112	0.00	29.882 
20:40	45.8	45.8	45.8	75	38.3	1	3	90	0.00	29.884 
20:45	45.7	45.7	45.7	75	38.2	1	4	112	0.00	29.886 
20:50	45.7	45.7	45.7	75	38.2	1	5	112	0.00	29.888 
20:55	45.7	45.7	45.7	76	38.6	2	5	90	0.00	29.891 
21:00	45.5	45.5	45.5	76	38.4	1	4	90	0.00	29.891 
21:05	45.5	45.5	45.5	76	38.4	1	5	112	0.00	29.891 
21:10	45.4	45.4	45.4	76	38.3	1	6	68	0.00	29.893 
21:15	45.4	45.4	45.4	76	38.3	2	5	112	0.00	29.893 
21:20	45.4	45.4	45.4	77	38.6	2	4	112	0.00	29.894 
21:25	45.2	45.2	45.2	76	38.1	2	6	90	0.00	29.895 
21:30	45.2	45.2	45.2	76	38.1	2	4	112	0.00	29.898 
21:35	45.2	45.2	45.2	77	38.4	2	6	112	0.00	29.902 
21:40	45.2	45.2	45.2	77	38.4	2	6	112	0.00	29.905 
21:45	44.9	43.0	44.9	76	37.8	4	9	90	0.00	29.908 
21:50	44.6	44.6	44.6	76	37.5	3	9	90	0.00	29.907 
21:55	44.5	42.5	44.5	76	37.4	4	7	112	0.00	29.908 
22:00	44.3	42.3	44.3	76	37.2	4	7	112	0.00	29.909 
22:05	44.2	42.2	44.2	76	37.1	4	10	112	0.00	29.909 
22:10	44.1	44.1	44.1	77	37.4	3	6	90	0.00	29.909 
22:15	44.1	44.1	44.1	77	37.4	3	7	112	0.00	29.909 
22:20	43.9	43.9	43.9	77	37.2	3	6	112	0.00	29.909 
22:25	43.8	43.8	43.8	78	37.4	2	6	112	0.00	29.909 
22:30	43.8	41.7	43.8	78	37.4	4	9	90	0.00	29.910 
22:35	43.6	43.6	43.6	79	37.5	3	7	112	0.00	29.909 
22:40	43.6	43.6	43.6	79	37.5	1	6	112	0.00	29.909 
22:45	43.6	43.6	43.6	79	37.5	1	5	112	0.00	29.909 
22:50	43.6	43.6	43.6	80	37.8	2	6	112	0.00	29.909 
22:55	43.5	43.5	43.5	80	37.7	2	4	112	0.00	29.909 
23:00	43.5	43.5	43.5	80	37.7	1	5	112	0.00	29.909 
23:05	43.3	43.3	43.3	81	37.9	2	6	112	0.00	29.908 
23:10	43.3	43.3	43.3	81	37.9	1	3	45	0.00	29.907 
23:15	43.2	43.2	43.2	81	37.8	2	5	112	0.00	29.906 
23:20	43.1	43.1	43.1	81	37.7	2	6	90	0.00	29.905 
23:25	43.1	43.1	43.1	81	37.7	1	4	45	0.00	29.906 
23:30	42.9	42.9	42.9	81	37.5	1	4	22	0.00	29.906 
23:35	42.9	42.9	42.9	81	37.5	2	5	22	0.00	29.906 
23:40	42.9	42.9	42.9	81	37.5	2	5	112	0.00	29.907 
23:45	42.9	42.9	42.9	81	37.5	2	8	112	0.00	29.907 
23:50	42.8	42.8	42.8	81	37.4	2	7	112	0.00	29.906 
23:55	42.8	42.8	42.8	81	37.4	2	5	90	0.00	29.906 

CoCoRaHS
IN-AL-39
A2 Web Hosting
Creative Commons License
GoDaddy
Look for:

loaded 2017-12-13 20:03:46 • last modified 2010-11-18 10:43:29
Privacy PolicyDisclaimer
• wx.awcolley.com is powered by PmWiki v.2002016 •
• all content (unless otherwise noted) © 2017 A W Colley